createdAt,value
2017-03-11T00:00:58.465Z,6.13
2017-03-11T00:01:58.501Z,6.22
2017-03-11T00:02:58.508Z,6.13
2017-03-11T00:03:58.978Z,6.18
2017-03-11T00:04:58.188Z,6.13
2017-03-11T00:05:58.641Z,6.16
2017-03-11T00:06:58.255Z,6.16
2017-03-11T00:07:59.092Z,6.13
2017-03-11T00:08:58.714Z,6.1
2017-03-11T00:09:58.748Z,6.07
2017-03-11T00:10:58.773Z,6.1
2017-03-11T00:11:58.425Z,6.14
2017-03-11T00:12:58.455Z,6.14
2017-03-11T00:13:58.912Z,6.1
2017-03-11T00:14:58.912Z,6.06
2017-03-11T00:15:59.339Z,6.06
2017-03-11T00:16:58.975Z,6.07
2017-03-11T00:17:58.616Z,6.1
2017-03-11T00:18:58.656Z,6.06
2017-03-11T00:19:58.678Z,6.06
2017-03-11T00:20:58.706Z,6.06
2017-03-11T00:21:58.748Z,6.09
2017-03-11T00:22:58.797Z,6.06
2017-03-11T00:23:58.814Z,6.04
2017-03-11T00:24:58.844Z,6.04
2017-03-11T00:25:59.273Z,6.04
2017-03-11T00:26:59.323Z,5.95
2017-03-11T00:27:58.931Z,6.01
2017-03-11T00:28:59.397Z,6.11
2017-03-11T00:29:59.000Z,6
2017-03-11T00:30:59.447Z,6.04
2017-03-11T00:31:59.076Z,6
2017-03-11T00:32:59.106Z,6.03
2017-03-11T00:33:59.170Z,6
2017-03-11T00:34:59.548Z,5.91
2017-03-11T00:36:00.001Z,5.93
2017-03-11T00:36:59.637Z,5.96
2017-03-11T00:37:59.676Z,5.95
2017-03-11T00:38:59.492Z,6.06
2017-03-11T00:39:59.752Z,5.98
2017-03-11T00:40:59.764Z,5.98
2017-03-11T00:41:59.801Z,6
2017-03-11T00:42:59.427Z,5.98
2017-03-11T00:43:59.453Z,6
2017-03-11T00:44:59.885Z,6.03
2017-03-11T00:45:59.541Z,5.98
2017-03-11T00:46:59.995Z,6.07
2017-03-11T00:47:59.603Z,5.98
2017-03-11T00:48:59.640Z,6
2017-03-11T00:50:00.062Z,6.09
2017-03-11T00:51:00.080Z,6.06
2017-03-11T00:52:00.117Z,6.03
2017-03-11T00:53:00.150Z,6.01
2017-03-11T00:54:00.178Z,6.03
2017-03-11T00:55:00.210Z,6.03
2017-03-11T00:56:00.272Z,5.98
2017-03-11T00:57:00.284Z,6.06
2017-03-11T00:58:00.332Z,6.03
2017-03-11T00:58:59.946Z,6.06
2017-03-11T01:00:00.792Z,6.06
2017-03-11T01:01:00.795Z,5.98
2017-03-11T01:02:00.463Z,6.07
2017-03-11T01:03:00.482Z,6.1
2017-03-11T01:04:00.954Z,6.04
2017-03-11T01:05:00.145Z,6.11
2017-03-11T01:06:00.604Z,6.04
2017-03-11T01:07:00.604Z,6.1
2017-03-11T01:08:01.039Z,6.04
2017-03-11T01:09:00.294Z,6.09
2017-03-11T01:10:00.309Z,6.09
2017-03-11T01:11:00.346Z,5.98
2017-03-11T01:12:01.187Z,6.06
2017-03-11T01:13:00.419Z,6.09
2017-03-11T01:14:00.469Z,6.04
2017-03-11T01:15:00.882Z,6
2017-03-11T01:16:00.906Z,6.06
2017-03-11T01:17:00.933Z,5.96
2017-03-11T01:18:00.996Z,5.96
2017-03-11T01:19:00.999Z,6.01
2017-03-11T01:20:01.073Z,5.96
2017-03-11T01:21:00.671Z,5.96
2017-03-11T01:22:01.124Z,5.89
2017-03-11T01:23:00.736Z,5.93
2017-03-11T01:24:01.545Z,5.91
2017-03-11T01:25:01.183Z,5.89
2017-03-11T01:26:01.629Z,5.92
2017-03-11T01:27:00.885Z,5.91
2017-03-11T01:28:01.298Z,5.89
2017-03-11T01:29:01.328Z,5.95
2017-03-11T01:30:00.961Z,5.86
2017-03-11T01:31:01.383Z,5.89
2017-03-11T01:32:01.413Z,5.91
2017-03-11T01:33:01.049Z,5.89
2017-03-11T01:34:01.908Z,5.78
2017-03-11T01:35:01.535Z,5.74
2017-03-11T01:36:01.547Z,5.73
2017-03-11T01:37:01.177Z,5.77
2017-03-11T01:38:01.647Z,5.78
2017-03-11T01:39:01.260Z,5.74
2017-03-11T01:40:01.697Z,5.77
2017-03-11T01:41:01.315Z,5.66
2017-03-11T01:42:01.760Z,5.7
2017-03-11T01:43:01.775Z,5.6
2017-03-11T01:44:01.418Z,5.67
2017-03-11T01:45:01.435Z,5.63
2017-03-11T01:46:01.870Z,5.7
2017-03-11T01:47:01.915Z,5.66
2017-03-11T01:48:01.532Z,5.64
2017-03-11T01:49:01.963Z,5.57
2017-03-11T01:50:02.038Z,5.52
2017-03-11T01:51:02.037Z,5.6
2017-03-11T01:52:01.704Z,5.56
2017-03-11T01:53:01.709Z,5.59
2017-03-11T01:54:01.746Z,5.57
2017-03-11T01:55:01.774Z,5.59
2017-03-11T01:56:02.593Z,5.53
2017-03-11T01:57:02.216Z,5.59
2017-03-11T01:58:01.864Z,5.52
2017-03-11T01:59:02.293Z,5.49
2017-03-11T02:00:02.340Z,5.48
2017-03-11T02:01:02.441Z,5.41
2017-03-11T02:02:02.792Z,5.49
2017-03-11T02:03:02.428Z,5.41
2017-03-11T02:04:02.870Z,5.5
2017-03-11T02:05:02.481Z,5.45
2017-03-11T02:06:02.124Z,5.52
2017-03-11T02:07:02.169Z,5.46
2017-03-11T02:08:02.585Z,5.45
2017-03-11T02:09:02.628Z,5.52
2017-03-11T02:10:02.659Z,5.49
2017-03-11T02:11:02.284Z,5.46
2017-03-11T02:12:02.750Z,5.41
2017-03-11T02:13:02.337Z,5.49
2017-03-11T02:14:03.165Z,5.4
2017-03-11T02:15:02.407Z,5.34
2017-03-11T02:16:02.845Z,5.48
2017-03-11T02:17:02.868Z,5.48
2017-03-11T02:18:02.936Z,5.43
2017-03-11T02:19:02.575Z,5.37
2017-03-11T02:20:03.367Z,5.3
2017-03-11T02:21:02.625Z,5.41
2017-03-11T02:22:03.051Z,5.37
2017-03-11T02:23:03.066Z,5.37
2017-03-11T02:24:03.122Z,5.38
2017-03-11T02:25:02.736Z,5.31
2017-03-11T02:26:03.189Z,5.34
2017-03-11T02:27:02.790Z,5.38
2017-03-11T02:28:03.229Z,5.28
2017-03-11T02:29:02.865Z,5.31
2017-03-11T02:30:03.717Z,5.34
2017-03-11T02:31:02.950Z,5.3
2017-03-11T02:32:03.348Z,5.34
2017-03-11T02:33:03.379Z,5.37
2017-03-11T02:34:03.840Z,5.37
2017-03-11T02:35:03.056Z,5.34
2017-03-11T02:36:03.511Z,5.4
2017-03-11T02:37:03.499Z,5.35
2017-03-11T02:38:03.560Z,5.35
2017-03-11T02:39:03.572Z,5.38
2017-03-11T02:40:04.020Z,5.32
2017-03-11T02:41:03.251Z,5.31
2017-03-11T02:42:03.697Z,5.3
2017-03-11T02:43:03.719Z,5.25
2017-03-11T02:44:03.356Z,5.37
2017-03-11T02:45:03.763Z,5.38
2017-03-11T02:46:03.426Z,5.28
2017-03-11T02:47:04.221Z,5.35
2017-03-11T02:48:04.282Z,5.27
2017-03-11T02:49:03.900Z,5.31
2017-03-11T02:50:03.947Z,5.34
2017-03-11T02:51:03.960Z,5.32
2017-03-11T02:52:03.605Z,5.32
2017-03-11T02:53:03.626Z,5.23
2017-03-11T02:54:04.088Z,5.31
2017-03-11T02:55:03.684Z,5.25
2017-03-11T02:56:04.126Z,5.27
2017-03-11T02:57:03.782Z,5.22
2017-03-11T02:58:04.207Z,5.23
2017-03-11T02:59:03.813Z,5.28
2017-03-11T03:00:04.693Z,5.23
2017-03-11T03:01:04.309Z,5.31
2017-03-11T03:02:04.720Z,5.19
2017-03-11T03:03:04.351Z,5.19
2017-03-11T03:04:04.363Z,5.22
2017-03-11T03:05:04.432Z,5.1
2017-03-11T03:06:04.476Z,5.09
2017-03-11T03:07:04.470Z,5.17
2017-03-11T03:08:04.110Z,5.17
2017-03-11T03:09:04.142Z,5.17
2017-03-11T03:10:05.001Z,5.22
2017-03-11T03:11:04.596Z,5.12
2017-03-11T03:12:05.026Z,5.13
2017-03-11T03:13:04.650Z,5.13
2017-03-11T03:14:04.705Z,5.1
2017-03-11T03:15:04.333Z,5.09
2017-03-11T03:16:04.778Z,5.19
2017-03-11T03:17:04.794Z,5.12
2017-03-11T03:18:04.837Z,5.14
2017-03-11T03:19:04.458Z,5.07
2017-03-11T03:20:05.299Z,5.1
2017-03-11T03:21:04.921Z,5.1
2017-03-11T03:22:04.963Z,5.07
2017-03-11T03:23:04.988Z,5.07
2017-03-11T03:24:05.428Z,5.07
2017-03-11T03:25:05.034Z,5.07
2017-03-11T03:26:05.095Z,5.02
2017-03-11T03:27:04.716Z,5.05
2017-03-11T03:28:05.216Z,5.01
2017-03-11T03:29:04.775Z,5.02
2017-03-11T03:30:05.242Z,4.96
2017-03-11T03:31:04.851Z,4.96
2017-03-11T03:32:05.292Z,5.07
2017-03-11T03:33:05.346Z,5.09
2017-03-11T03:34:05.353Z,4.99
2017-03-11T03:35:04.975Z,4.99
2017-03-11T03:36:05.410Z,4.99
2017-03-11T03:37:05.036Z,4.95
2017-03-11T03:38:05.507Z,4.99
2017-03-11T03:39:05.490Z,4.99
2017-03-11T03:40:05.524Z,4.98
2017-03-11T03:41:05.161Z,5.01
2017-03-11T03:42:05.596Z,5.02
2017-03-11T03:43:05.221Z,5.04
2017-03-11T03:44:05.247Z,5.02
2017-03-11T03:45:05.675Z,5.02
2017-03-11T03:46:05.343Z,5.01
2017-03-11T03:47:05.359Z,4.99
2017-03-11T03:48:05.789Z,5.02
2017-03-11T03:49:05.797Z,5.04
2017-03-11T03:50:05.869Z,5.05
2017-03-11T03:51:05.479Z,5.02
2017-03-11T03:52:05.516Z,5.07
2017-03-11T03:53:05.939Z,4.99
2017-03-11T03:54:05.980Z,5.05
2017-03-11T03:55:05.599Z,5.09
2017-03-11T03:56:06.051Z,5.04
2017-03-11T03:57:06.078Z,5.07
2017-03-11T03:58:06.118Z,5.02
2017-03-11T03:59:05.747Z,5.04
2017-03-11T04:00:05.764Z,5.02
2017-03-11T04:01:06.595Z,5.01
2017-03-11T04:02:05.832Z,4.95
2017-03-11T04:03:06.292Z,5.01
2017-03-11T04:04:06.684Z,5.04
2017-03-11T04:05:05.914Z,4.96
2017-03-11T04:06:06.378Z,4.96
2017-03-11T04:07:05.994Z,5.04
2017-03-11T04:08:06.434Z,4.94
2017-03-11T04:09:06.442Z,4.96
2017-03-11T04:10:06.508Z,5.02
2017-03-11T04:11:06.128Z,5.01
2017-03-11T04:12:06.950Z,5.01
2017-03-11T04:13:06.182Z,4.95
2017-03-11T04:14:06.223Z,4.95
2017-03-11T04:15:07.046Z,4.95
2017-03-11T04:16:07.099Z,4.96
2017-03-11T04:17:06.702Z,4.94
2017-03-11T04:18:06.768Z,4.94
2017-03-11T04:19:06.764Z,4.95
2017-03-11T04:20:07.238Z,4.92
2017-03-11T04:21:07.213Z,4.96
2017-03-11T04:22:07.282Z,4.95
2017-03-11T04:23:06.488Z,4.99
2017-03-11T04:24:06.943Z,4.95
2017-03-11T04:25:06.955Z,4.96
2017-03-11T04:26:07.028Z,4.91
2017-03-11T04:27:06.619Z,4.94
2017-03-11T04:28:07.053Z,4.96
2017-03-11T04:29:06.693Z,4.89
2017-03-11T04:30:07.505Z,4.98
2017-03-11T04:31:07.132Z,4.96
2017-03-11T04:32:07.205Z,4.89
2017-03-11T04:33:06.866Z,4.98
2017-03-11T04:34:07.266Z,4.94
2017-03-11T04:35:07.270Z,4.96
2017-03-11T04:36:07.705Z,4.92
2017-03-11T04:37:07.343Z,4.92
2017-03-11T04:38:06.975Z,4.92
2017-03-11T04:39:07.793Z,4.95
2017-03-11T04:40:07.039Z,4.98
2017-03-11T04:41:07.068Z,4.89
2017-03-11T04:42:07.892Z,4.94
2017-03-11T04:43:07.124Z,5.02
2017-03-11T04:44:07.592Z,4.94
2017-03-11T04:45:07.195Z,4.96
2017-03-11T04:46:08.064Z,4.91
2017-03-11T04:47:07.252Z,4.94
2017-03-11T04:48:07.680Z,4.95
2017-03-11T04:49:07.315Z,4.92
2017-03-11T04:50:07.348Z,4.95
2017-03-11T04:51:07.399Z,4.98
2017-03-11T04:52:07.437Z,4.89
2017-03-11T04:53:08.283Z,4.94
2017-03-11T04:54:07.882Z,4.94
2017-03-11T04:55:07.910Z,4.91
2017-03-11T04:56:07.547Z,4.95
2017-03-11T04:57:07.979Z,4.92
2017-03-11T04:58:08.011Z,4.86
2017-03-11T04:59:07.657Z,4.91
2017-03-11T05:00:07.673Z,4.96
2017-03-11T05:01:08.090Z,4.98
2017-03-11T05:02:07.734Z,4.96
2017-03-11T05:03:08.150Z,4.92
2017-03-11T05:04:08.234Z,4.92
2017-03-11T05:05:07.827Z,4.89
2017-03-11T05:06:08.673Z,4.96
2017-03-11T05:07:07.920Z,4.94
2017-03-11T05:08:08.315Z,4.92
2017-03-11T05:09:07.968Z,4.94
2017-03-11T05:10:08.804Z,4.91
2017-03-11T05:11:08.041Z,4.94
2017-03-11T05:12:08.852Z,4.84
2017-03-11T05:13:08.077Z,4.95
2017-03-11T05:14:08.516Z,4.88
2017-03-11T05:15:08.584Z,4.86
2017-03-11T05:16:08.199Z,4.88
2017-03-11T05:17:08.616Z,4.88
2017-03-11T05:18:08.638Z,4.8
2017-03-11T05:19:08.276Z,4.83
2017-03-11T05:20:08.698Z,4.88
2017-03-11T05:21:08.348Z,4.8
2017-03-11T05:22:08.780Z,4.8
2017-03-11T05:23:08.798Z,4.86
2017-03-11T05:24:08.448Z,4.77
2017-03-11T05:25:08.487Z,4.84
2017-03-11T05:26:08.904Z,4.77
2017-03-11T05:27:08.919Z,4.83
2017-03-11T05:28:08.565Z,4.83
2017-03-11T05:29:08.988Z,4.7
2017-03-11T05:30:09.015Z,4.84
2017-03-11T05:31:08.654Z,4.76
2017-03-11T05:32:09.083Z,4.73
2017-03-11T05:33:08.728Z,4.79
2017-03-11T05:34:09.158Z,4.75
2017-03-11T05:35:08.808Z,4.73
2017-03-11T05:36:09.204Z,4.72
2017-03-11T05:37:08.860Z,4.76
2017-03-11T05:38:09.283Z,4.76
2017-03-11T05:39:08.915Z,4.75
2017-03-11T05:40:09.354Z,4.86
2017-03-11T05:41:08.983Z,4.86
2017-03-11T05:42:09.014Z,4.8
2017-03-11T05:43:09.064Z,4.77
2017-03-11T05:44:09.490Z,4.91
2017-03-11T05:45:09.107Z,4.88
2017-03-11T05:46:09.156Z,4.8
2017-03-11T05:47:09.211Z,4.91
2017-03-11T05:48:09.202Z,4.91
2017-03-11T05:49:09.254Z,4.89
2017-03-11T05:50:10.068Z,4.91
2017-03-11T05:51:09.289Z,4.91
2017-03-11T05:52:09.752Z,4.86
2017-03-11T05:53:09.744Z,4.89
2017-03-11T05:54:09.417Z,4.98
2017-03-11T05:55:09.810Z,4.95
2017-03-11T05:56:09.857Z,4.96
2017-03-11T05:57:09.497Z,5.01
2017-03-11T05:58:10.316Z,5.01
2017-03-11T05:59:09.559Z,4.96
2017-03-11T06:00:10.379Z,4.99
2017-03-11T06:01:09.624Z,5.02
2017-03-11T06:02:10.047Z,5.05
2017-03-11T06:03:10.068Z,5.09
2017-03-11T06:04:10.124Z,5.13
2017-03-11T06:05:09.747Z,5.13
2017-03-11T06:06:10.588Z,5.02
2017-03-11T06:07:09.800Z,5.13
2017-03-11T06:08:10.227Z,5.13
2017-03-11T06:09:10.296Z,5.14
2017-03-11T06:10:10.281Z,5.17
2017-03-11T06:11:10.328Z,5.2
2017-03-11T06:12:10.372Z,5.17
2017-03-11T06:13:10.005Z,5.13
2017-03-11T06:14:10.450Z,5.25
2017-03-11T06:15:10.450Z,5.27
2017-03-11T06:16:10.487Z,5.14
2017-03-11T06:17:10.113Z,5.32
2017-03-11T06:18:10.556Z,5.34
2017-03-11T06:19:10.586Z,5.28
2017-03-11T06:20:11.009Z,5.45
2017-03-11T06:21:10.251Z,5.37
2017-03-11T06:22:10.690Z,5.48
2017-03-11T06:23:10.735Z,5.46
2017-03-11T06:24:10.356Z,5.56
2017-03-11T06:25:10.762Z,5.55
2017-03-11T06:26:10.793Z,5.43
2017-03-11T06:27:10.445Z,5.45
2017-03-11T06:28:10.900Z,5.5
2017-03-11T06:29:10.904Z,5.59
2017-03-11T06:30:10.944Z,5.56
2017-03-11T06:31:10.579Z,5.59
2017-03-11T06:32:10.611Z,5.6
2017-03-11T06:33:10.642Z,5.73
2017-03-11T06:34:11.088Z,5.68
2017-03-11T06:35:10.697Z,5.82
2017-03-11T06:36:10.752Z,5.88
2017-03-11T06:37:10.759Z,5.96
2017-03-11T06:38:11.614Z,6.03
2017-03-11T06:39:10.839Z,5.98
2017-03-11T06:40:10.869Z,6.1
2017-03-11T06:41:10.899Z,6.1
2017-03-11T06:42:11.378Z,6.18
2017-03-11T06:43:10.966Z,6.11
2017-03-11T06:44:11.417Z,6.29
2017-03-11T06:45:11.428Z,6.35
2017-03-11T06:46:11.470Z,6.38
2017-03-11T06:47:11.086Z,6.47
2017-03-11T06:48:11.540Z,6.59
2017-03-11T06:49:11.553Z,6.84
2017-03-11T06:50:11.614Z,6.83
2017-03-11T06:51:11.239Z,7.09
2017-03-11T06:52:11.688Z,7.17
2017-03-11T06:53:11.299Z,7.22
2017-03-11T06:54:11.337Z,7.27
2017-03-11T06:55:11.748Z,7.27
2017-03-11T06:56:11.789Z,7.27
2017-03-11T06:57:11.421Z,7.24
2017-03-11T06:58:12.271Z,7.23
2017-03-11T06:59:11.507Z,7.12
2017-03-11T07:00:11.944Z,7.23
2017-03-11T07:01:11.617Z,7.15
2017-03-11T07:02:12.442Z,7.13
2017-03-11T07:03:12.037Z,7.08
2017-03-11T07:04:11.685Z,7.08
2017-03-11T07:05:12.084Z,7.12
2017-03-11T07:06:11.728Z,7.01
2017-03-11T07:07:11.758Z,7.12
2017-03-11T07:08:11.811Z,6.94
2017-03-11T07:09:12.227Z,6.99
2017-03-11T07:10:12.278Z,7.04
2017-03-11T07:11:12.295Z,6.97
2017-03-11T07:12:12.738Z,6.95
2017-03-11T07:13:11.973Z,7.04
2017-03-11T07:14:12.800Z,7.04
2017-03-11T07:15:12.037Z,6.98
2017-03-11T07:16:12.475Z,7.04
2017-03-11T07:17:12.094Z,7.02
2017-03-11T07:18:12.543Z,7.04
2017-03-11T07:19:12.572Z,7.07
2017-03-11T07:20:13.008Z,7.08
2017-03-11T07:21:12.242Z,7.19
2017-03-11T07:22:13.096Z,7.08
2017-03-11T07:23:12.699Z,7.23
2017-03-11T07:24:12.766Z,7.15
2017-03-11T07:25:12.375Z,7.09
2017-03-11T07:26:12.820Z,7.13
2017-03-11T07:27:12.866Z,7.13
2017-03-11T07:28:13.306Z,7.24
2017-03-11T07:29:12.902Z,7.17
2017-03-11T07:30:13.354Z,7.13
2017-03-11T07:31:12.566Z,7.13
2017-03-11T07:32:13.438Z,7.05
2017-03-11T07:33:12.635Z,7.02
2017-03-11T07:34:13.086Z,7.07
2017-03-11T07:35:13.096Z,7.15
2017-03-11T07:36:13.546Z,7.22
2017-03-11T07:37:12.788Z,7.13
2017-03-11T07:38:13.626Z,7.07
2017-03-11T07:39:13.222Z,7.17
2017-03-11T07:40:13.284Z,7.17
2017-03-11T07:41:12.905Z,7.24
2017-03-11T07:42:13.375Z,7.34
2017-03-11T07:43:12.986Z,7.4
2017-03-11T07:44:13.411Z,7.45
2017-03-11T07:45:13.039Z,7.6
2017-03-11T07:46:13.880Z,7.63
2017-03-11T07:47:13.141Z,7.58
2017-03-11T07:48:13.571Z,7.75
2017-03-11T07:49:13.193Z,7.84
2017-03-11T07:50:13.642Z,7.78
2017-03-11T07:51:13.245Z,7.85
2017-03-11T07:52:13.704Z,7.96
2017-03-11T07:53:13.742Z,7.93
2017-03-11T07:54:14.174Z,8.1
2017-03-11T07:55:13.791Z,8.07
2017-03-11T07:56:13.823Z,8.08
2017-03-11T07:57:13.852Z,8.2
2017-03-11T07:58:13.903Z,8.33
2017-03-11T07:59:13.526Z,8.33
2017-03-11T08:00:14.388Z,8.44
2017-03-11T08:01:13.985Z,8.54
2017-03-11T08:02:14.039Z,8.65
2017-03-11T08:03:14.062Z,8.68
2017-03-11T08:04:14.519Z,8.79
2017-03-11T08:05:14.132Z,8.88
2017-03-11T08:06:14.200Z,8.91
2017-03-11T08:07:13.816Z,9.01
2017-03-11T08:08:13.837Z,9.06
2017-03-11T08:09:14.106Z,9.2
2017-03-11T08:10:14.301Z,9.23
2017-03-11T08:11:14.355Z,9.38
2017-03-11T08:12:13.987Z,9.38
2017-03-11T08:13:14.405Z,9.45
2017-03-11T08:14:14.086Z,9.5
2017-03-11T08:15:14.101Z,9.46
2017-03-11T08:16:14.556Z,9.67
2017-03-11T08:17:14.587Z,9.63
2017-03-11T08:18:14.198Z,9.78
2017-03-11T08:19:14.237Z,9.85
2017-03-11T08:20:14.660Z,9.88
2017-03-11T08:21:14.302Z,9.96
2017-03-11T08:22:14.751Z,10.06
2017-03-11T08:23:14.774Z,10.04
2017-03-11T08:24:14.426Z,10.17
2017-03-11T08:25:14.445Z,10.15
2017-03-11T08:26:14.498Z,10.18
2017-03-11T08:27:14.947Z,10.17
2017-03-11T08:28:14.564Z,10.18
2017-03-11T08:29:14.989Z,10.19
2017-03-11T08:30:14.649Z,10.21
2017-03-11T08:31:14.668Z,10.25
2017-03-11T08:32:15.095Z,10.25
2017-03-11T08:33:14.750Z,10.39
2017-03-11T08:34:15.581Z,10.43
2017-03-11T08:35:15.224Z,10.44
2017-03-11T08:36:15.671Z,10.59
2017-03-11T08:37:15.296Z,10.63
2017-03-11T08:38:15.456Z,10.66
2017-03-11T08:39:15.350Z,10.73
2017-03-11T08:40:15.012Z,10.78
2017-03-11T08:41:15.045Z,10.66
2017-03-11T08:42:15.108Z,10.66
2017-03-11T08:43:15.118Z,10.71
2017-03-11T08:44:15.534Z,10.71
2017-03-11T08:45:15.199Z,10.83
2017-03-11T08:46:15.633Z,10.86
2017-03-11T08:47:15.275Z,10.88
2017-03-11T08:48:16.115Z,11.06
2017-03-11T08:49:15.342Z,11.03
2017-03-11T08:50:15.770Z,11.01
2017-03-11T08:51:15.409Z,11.16
2017-03-11T08:52:15.868Z,11.27
2017-03-11T08:53:15.517Z,11.35
2017-03-11T08:54:15.923Z,11.38
2017-03-11T08:55:15.566Z,11.56
2017-03-11T08:56:15.600Z,11.53
2017-03-11T08:57:15.637Z,11.7
2017-03-11T08:58:16.508Z,11.64
2017-03-11T08:59:15.698Z,11.62
2017-03-11T09:00:15.749Z,11.56
2017-03-11T09:01:15.781Z,11.49
2017-03-11T09:02:16.218Z,11.54
2017-03-11T09:03:15.850Z,11.43
2017-03-11T09:04:16.705Z,11.41
2017-03-11T09:05:16.331Z,11.41
2017-03-11T09:06:16.377Z,11.39
2017-03-11T09:07:16.000Z,11.43
2017-03-11T09:08:16.456Z,11.46
2017-03-11T09:09:16.090Z,11.44
2017-03-11T09:10:16.520Z,11.49
2017-03-11T09:11:16.559Z,11.34
2017-03-11T09:12:16.199Z,11.35
2017-03-11T09:13:16.642Z,11.44
2017-03-11T09:14:16.671Z,11.43
2017-03-11T09:15:16.323Z,11.44
2017-03-11T09:16:16.352Z,11.52
2017-03-11T09:17:16.379Z,11.5
2017-03-11T09:18:16.420Z,11.5
2017-03-11T09:19:16.851Z,11.54
2017-03-11T09:20:16.492Z,11.54
2017-03-11T09:21:16.529Z,11.5
2017-03-11T09:22:16.569Z,11.53
2017-03-11T09:23:17.000Z,11.49
2017-03-11T09:24:17.033Z,11.49
2017-03-11T09:25:16.696Z,11.46
2017-03-11T09:26:16.715Z,11.39
2017-03-11T09:27:16.754Z,11.46
2017-03-11T09:28:17.175Z,11.46
2017-03-11T09:29:17.221Z,11.49
2017-03-11T09:30:16.889Z,11.38
2017-03-11T09:31:16.931Z,11.39
2017-03-11T09:32:16.948Z,11.39
2017-03-11T09:33:17.400Z,11.47
2017-03-11T09:34:17.413Z,11.47
2017-03-11T09:35:17.439Z,11.44
2017-03-11T09:36:17.474Z,11.44
2017-03-11T09:37:17.517Z,11.31
2017-03-11T09:38:17.563Z,11.38
2017-03-11T09:39:17.218Z,11.35
2017-03-11T09:40:17.635Z,11.35
2017-03-11T09:41:17.265Z,11.36
2017-03-11T09:42:17.312Z,11.27
2017-03-11T09:43:18.122Z,11.34
2017-03-11T09:44:17.388Z,11.34
2017-03-11T09:45:17.416Z,11.35
2017-03-11T09:46:18.296Z,11.36
2017-03-11T09:47:17.891Z,11.46
2017-03-11T09:48:17.961Z,11.34
2017-03-11T09:49:17.974Z,11.39
2017-03-11T09:50:18.005Z,11.32
2017-03-11T09:51:17.644Z,11.46
2017-03-11T09:52:18.082Z,11.5
2017-03-11T09:53:18.125Z,11.39
2017-03-11T09:54:17.760Z,11.53
2017-03-11T09:55:17.783Z,11.54
2017-03-11T09:56:18.215Z,11.56
2017-03-11T09:57:18.251Z,11.57
2017-03-11T09:58:17.923Z,11.59
2017-03-11T09:59:17.946Z,11.64
2017-03-11T10:00:18.006Z,11.71
2017-03-11T10:01:18.414Z,11.67
2017-03-11T10:02:18.880Z,11.72
2017-03-11T10:03:18.082Z,11.83
2017-03-11T10:04:18.133Z,11.89
2017-03-11T10:05:18.173Z,11.83
2017-03-11T10:06:18.590Z,11.96
2017-03-11T10:07:18.248Z,12.05
2017-03-11T10:08:18.294Z,11.97
2017-03-11T10:09:18.317Z,12.04
2017-03-11T10:10:18.489Z,12.09
2017-03-11T10:11:18.400Z,12.15
2017-03-11T10:12:18.834Z,12.2
2017-03-11T10:13:18.859Z,12.29
2017-03-11T10:14:18.920Z,12.27
2017-03-11T10:15:18.944Z,12.3
2017-03-11T10:16:19.005Z,12.49
2017-03-11T10:17:18.627Z,12.51
2017-03-11T10:18:19.062Z,12.52
2017-03-11T10:19:19.113Z,12.62
2017-03-11T10:20:19.539Z,12.66
2017-03-11T10:21:19.187Z,12.75
2017-03-11T10:22:19.242Z,12.77
2017-03-11T10:23:18.864Z,12.88
2017-03-11T10:24:19.320Z,12.95
2017-03-11T10:25:18.930Z,13.11
2017-03-11T10:26:19.808Z,13.14
2017-03-11T10:27:19.420Z,13.2
2017-03-11T10:28:19.470Z,13.37
2017-03-11T10:29:19.488Z,13.47
2017-03-11T10:30:19.143Z,13.7
2017-03-11T10:31:19.570Z,13.81
2017-03-11T10:32:19.227Z,13.98
2017-03-11T10:33:19.650Z,14.16
2017-03-11T10:34:19.544Z,14.13
2017-03-11T10:35:19.736Z,14.31
2017-03-11T10:36:19.780Z,14.56
2017-03-11T10:37:19.442Z,14.67
2017-03-11T10:38:20.269Z,14.75
2017-03-11T10:39:19.910Z,14.99
2017-03-11T10:40:19.557Z,15.17
2017-03-11T10:41:20.387Z,15.2
2017-03-11T10:42:20.035Z,15.3
2017-03-11T10:43:19.675Z,15.51
2017-03-11T10:44:20.131Z,15.54
2017-03-11T10:45:20.150Z,15.81
2017-03-11T10:46:20.208Z,15.88
2017-03-11T10:47:19.854Z,15.96
2017-03-11T10:48:20.681Z,16.14
2017-03-11T10:49:19.970Z,16.16
2017-03-11T10:50:20.400Z,16.33
2017-03-11T10:51:20.038Z,16.42
2017-03-11T10:52:20.082Z,16.6
2017-03-11T10:53:20.132Z,16.55
2017-03-11T10:54:20.159Z,16.53
2017-03-11T10:55:20.217Z,16.5
2017-03-11T10:56:20.656Z,16.49
2017-03-11T10:57:20.917Z,16.5
2017-03-11T10:58:20.771Z,16.5
2017-03-11T10:59:20.402Z,16.42
2017-03-11T11:00:20.434Z,16.45
2017-03-11T11:01:20.480Z,16.37
2017-03-11T11:02:20.908Z,16.35
2017-03-11T11:03:20.957Z,16.35
2017-03-11T11:04:20.603Z,16.23
2017-03-11T11:05:21.042Z,16.26
2017-03-11T11:06:20.698Z,16.11
2017-03-11T11:07:20.746Z,16.03
2017-03-11T11:08:21.162Z,15.99
2017-03-11T11:09:21.211Z,15.84
2017-03-11T11:10:20.872Z,15.86
2017-03-11T11:11:20.913Z,15.78
2017-03-11T11:12:20.952Z,15.74
2017-03-11T11:13:20.986Z,15.57
2017-03-11T11:14:21.430Z,15.43
2017-03-11T11:15:21.079Z,15.36
2017-03-11T11:16:21.123Z,15.26
2017-03-11T11:17:21.166Z,15.28
2017-03-11T11:18:21.197Z,15.23
2017-03-11T11:19:21.632Z,15.15
2017-03-11T11:20:21.708Z,15.11
2017-03-11T11:21:21.716Z,15.12
2017-03-11T11:22:21.372Z,15.08
2017-03-11T11:23:21.404Z,15.17
2017-03-11T11:24:21.830Z,15.02
2017-03-11T11:25:21.861Z,14.94
2017-03-11T11:26:21.508Z,14.99
2017-03-11T11:27:21.561Z,14.84
2017-03-11T11:28:21.590Z,14.78
2017-03-11T11:29:22.027Z,14.68
2017-03-11T11:30:21.674Z,14.62
2017-03-11T11:31:21.714Z,14.5
2017-03-11T11:32:21.746Z,14.47
2017-03-11T11:33:22.213Z,14.46
2017-03-11T11:34:22.222Z,14.31
2017-03-11T11:35:21.869Z,14.29
2017-03-11T11:36:22.304Z,14.2
2017-03-11T11:37:21.975Z,14.17
2017-03-11T11:38:22.380Z,14.09
2017-03-11T11:39:22.027Z,14.1
2017-03-11T11:40:22.074Z,14.13
2017-03-11T11:41:22.515Z,14.13
2017-03-11T11:42:22.142Z,14.1
2017-03-11T11:43:22.191Z,14.06
2017-03-11T11:44:22.220Z,13.95
2017-03-11T11:45:22.660Z,13.98
2017-03-11T11:46:22.689Z,13.88
2017-03-11T11:47:22.358Z,13.88
2017-03-11T11:48:22.377Z,13.62
2017-03-11T11:49:22.413Z,13.69
2017-03-11T11:50:22.857Z,13.58
2017-03-11T11:51:22.895Z,13.59
2017-03-11T11:52:22.531Z,13.56
2017-03-11T11:53:22.959Z,13.51
2017-03-11T11:54:22.610Z,13.59
2017-03-11T11:55:23.052Z,13.49
2017-03-11T11:56:22.692Z,13.41
2017-03-11T11:57:23.134Z,13.36
2017-03-11T11:58:23.158Z,13.44
2017-03-11T11:59:23.210Z,13.36
2017-03-11T12:00:22.861Z,13.32
2017-03-11T12:01:23.269Z,13.24
2017-03-11T12:02:22.923Z,13.33
2017-03-11T12:03:23.360Z,13.17
2017-03-11T12:04:23.394Z,13.14
2017-03-11T12:05:23.436Z,13.12
2017-03-11T12:06:23.073Z,13.11
2017-03-11T12:07:23.115Z,13.15
2017-03-11T12:08:23.557Z,13.09
2017-03-11T12:09:23.572Z,13.06
2017-03-11T12:10:24.013Z,13
2017-03-11T12:11:23.271Z,12.97
2017-03-11T12:12:23.294Z,13
2017-03-11T12:13:23.336Z,13.12
2017-03-11T12:14:23.772Z,13.09
2017-03-11T12:15:23.424Z,13.07
2017-03-11T12:16:23.465Z,12.97
2017-03-11T12:17:23.888Z,12.96
2017-03-11T12:18:23.609Z,12.93
2017-03-11T12:19:23.577Z,13
2017-03-11T12:20:24.018Z,12.85
2017-03-11T12:21:23.657Z,13
2017-03-11T12:22:24.077Z,12.93
2017-03-11T12:23:23.720Z,12.93
2017-03-11T12:24:24.148Z,13.02
2017-03-11T12:25:23.811Z,12.99
2017-03-11T12:26:24.239Z,12.88
2017-03-11T12:27:23.879Z,12.75
2017-03-11T12:28:23.906Z,12.82
2017-03-11T12:29:23.970Z,12.75
2017-03-11T12:30:24.009Z,12.74
2017-03-11T12:31:24.028Z,12.57
2017-03-11T12:32:24.068Z,12.6
2017-03-11T12:33:24.492Z,12.54
2017-03-11T12:34:24.195Z,12.42
2017-03-11T12:35:24.177Z,12.51
2017-03-11T12:36:24.603Z,12.51
2017-03-11T12:37:24.274Z,12.44
2017-03-11T12:38:24.295Z,12.46
2017-03-11T12:39:24.351Z,12.52
2017-03-11T12:40:24.371Z,12.39
2017-03-11T12:41:24.400Z,12.33
2017-03-11T12:42:24.842Z,12.31
2017-03-11T12:43:24.876Z,12.38
2017-03-11T12:44:24.919Z,12.3
2017-03-11T12:45:24.952Z,12.3
2017-03-11T12:46:24.594Z,12.29
2017-03-11T12:47:25.029Z,12.33
2017-03-11T12:48:24.668Z,12.39
2017-03-11T12:49:24.733Z,12.52
2017-03-11T12:50:24.739Z,12.39
2017-03-11T12:51:25.172Z,12.45
2017-03-11T12:52:24.835Z,12.56
2017-03-11T12:53:25.260Z,12.52
2017-03-11T12:54:25.288Z,12.51
2017-03-11T12:55:25.324Z,12.46
2017-03-11T12:56:24.982Z,12.48
2017-03-11T12:57:25.015Z,12.52
2017-03-11T12:58:25.059Z,12.52
2017-03-11T12:59:25.105Z,12.51
2017-03-11T13:00:25.517Z,12.51
2017-03-11T13:01:25.156Z,12.54
2017-03-11T13:02:25.599Z,12.54
2017-03-11T13:03:26.014Z,12.51
2017-03-11T13:04:25.283Z,12.62
2017-03-11T13:05:25.312Z,12.64
2017-03-11T13:06:25.349Z,12.64
2017-03-11T13:07:25.794Z,12.63
2017-03-11T13:08:25.822Z,12.66
2017-03-11T13:09:25.461Z,12.63
2017-03-11T13:10:25.501Z,12.66
2017-03-11T13:11:25.539Z,12.64
2017-03-11T13:12:25.580Z,12.69